Xunwu, China
Current Conditions -  °F | °C
As of 3:00 PM on Monday 22 Dec 2014 (Local Time) from ZGOW Reporting Station
Clear Clear  
Wind Chill: 61°   Ceiling: Unl
Heat Index: 61°   Visibility: 6mi
Dew Point: 34°   Wind: 7mph
Humidity: 36%   Direction: 120°ESE
Pressure: 30.21"   Gusts: NA
Location:  24.95°N, 115.65°E
Report Text: ZGOW 220700Z 12003MPS 080V150 CAVOK 16/01 Q1023 NOSIG
Loading
Personal Weather Stations






























Interactive Weather Map New forecast layout! Learn more

10-Day Weather Forecast

Advertisements
Track Severe Weather on mobile